Wetter

Link zur aktuellen Windanzeige


Nordholz:

METAR:

2022/01/17 21:20 ETMN 172120Z 32008KT 8000 FEW015 BKN023 06/04 Q1033 WHT

TAF:

2022/01/17 18:58 TAF AMD ETMN 171854Z 1718/1803 34010G20KT 9999 NSW SCT020 BKN030 TEMPO 1718/1722 33008G18KT 7000 NSW BKN020 BECMG 1722/1724 30008KT 5000 BR SCT006 BKN012 BY ETGG

Wind EDXN:

18.01. 00:10z 310/07G11kt
18.01. 00:20z 300/07G11kt
18.01. 00:30z 300/11kt
18.01. 00:40z 310/08G13kt
18.01. 00:50z 310/07G11kt
18.01. 01:00z 300/08G12kt
18.01. 01:10z 300/08G13kt
18.01. 01:20z 300/07G11kt
18.01. 01:30z 290/07G10kt 250V320
18.01. 01:40z 300/07G11kt

Bremen:

METAR:

2022/01/17 21:20 EDDW 172120Z 30007KT 9999 FEW018 BKN029 06/04 Q1034

TAF:

2022/01/17 18:27 TAF EDDW 171700Z 1718/1818 29008KT 9999 BKN025 BECMG 1800/1802 SCT009 BKN013 TEMPO 1801/1810 BKN007 PROB40 TEMPO 1804/1808 27003KT 2500 -DZ BR BKN004 BECMG 1810/1812 SCT013

Hamburg:

METAR:

2022/01/17 21:20 EDDH 172120Z 28009KT 9999 BKN029 04/01 Q1032 NOSIG

TAF:

2022/01/17 18:27 TAF EDDH 171700Z 1718/1824 29008KT 9999 FEW030 BECMG 1803/1805 SCT009 BKN013 TEMPO 1804/1812 BKN007 PROB40 TEMPO 1804/1809 27003KT 3500 BR BKN004 BECMG 1812/1814 SCT013 BECMG 1820/1822 BKN007

Hannover:

METAR:

2022/01/17 21:20 EDDV 172120Z 26005KT 9999 BKN030 04/02 Q1034

TAF:

2022/01/17 18:27 TAF EDDV 171700Z 1718/1818 29008KT 9999 BKN030 BECMG 1803/1805 SCT009 BKN013 TEMPO 1804/1812 BKN007 PROB40 TEMPO 1804/1809 27003KT 2500 -DZ BR BKN004 BECMG 1812/1814 SCT013

Wikipedia Artikel: METARTAF

Daten von Aviation Weather Center der NOAA, es kann keine Garantie für Aktualität und Richtigkeit der Daten übernommen werden.

Die Nutzung dieser Daten zur Flugplanung ist nicht zulässig!

Inoffizielle ATIS 🙂